createdAt,value
2023-03-28T00:01:43.714Z,66.21
2023-03-28T00:04:11.793Z,65.78
2023-03-28T00:06:41.555Z,66.74
2023-03-28T00:09:10.973Z,68.20
2023-03-28T00:11:40.703Z,69.31
2023-03-28T00:14:08.558Z,70.04
2023-03-28T00:16:39.317Z,70.21
2023-03-28T00:19:09.880Z,71.41
2023-03-28T00:21:41.443Z,71.51
2023-03-28T00:24:13.780Z,72.97
2023-03-28T00:26:44.495Z,75.21
2023-03-28T00:29:20.750Z,74.38
2023-03-28T00:31:50.493Z,74.55
2023-03-28T00:34:19.164Z,72.93
2023-03-28T00:36:47.100Z,72.89
2023-03-28T00:39:15.319Z,72.43
2023-03-28T00:41:45.565Z,72.46
2023-03-28T00:44:45.574Z,71.93
2023-03-28T00:47:36.747Z,71.71
2023-03-28T00:50:10.914Z,70.25
2023-03-28T00:52:42.642Z,70.54
2023-03-28T00:55:16.589Z,70.04
2023-03-28T00:57:47.398Z,70.12
2023-03-28T01:00:18.726Z,70.23
2023-03-28T01:02:52.350Z,69.37
2023-03-28T01:05:25.895Z,70.61
2023-03-28T01:07:59.283Z,70.46
2023-03-28T01:10:27.528Z,69.76
2023-03-28T01:12:58.693Z,70.51
2023-03-28T01:15:26.750Z,70.35
2023-03-28T01:18:03.265Z,70.11
2023-03-28T01:20:56.165Z,69.92
2023-03-28T01:23:44.799Z,70.89
2023-03-28T01:26:46.108Z,70.64
2023-03-28T01:29:45.144Z,70.73
2023-03-28T01:32:45.210Z,70.94
2023-03-28T01:36:02.151Z,71.47
2023-03-28T01:38:38.220Z,71.06
2023-03-28T01:41:12.517Z,70.28
2023-03-28T01:43:53.394Z,71.32
2023-03-28T01:46:29.118Z,70.53
2023-03-28T01:49:04.712Z,70.86
2023-03-28T01:51:44.403Z,70.25
2023-03-28T01:54:19.295Z,72.08
2023-03-28T01:56:52.731Z,72.48
2023-03-28T01:59:37.099Z,72.79
2023-03-28T02:02:31.138Z,72.21
2023-03-28T02:05:22.342Z,73.56
2023-03-28T02:07:53.569Z,74.53
2023-03-28T02:10:34.078Z,75.86
2023-03-28T02:13:24.167Z,75.95
2023-03-28T02:16:02.474Z,77.24
2023-03-28T02:19:01.895Z,76.72
2023-03-28T02:21:41.227Z,76.51
2023-03-28T02:24:35.176Z,75.82
2023-03-28T02:27:15.010Z,75.83
2023-03-28T02:29:50.300Z,75.26
2023-03-28T02:32:34.073Z,74.75
2023-03-28T02:35:04.488Z,74.91
2023-03-28T02:37:49.463Z,75.07
2023-03-28T02:40:35.828Z,74.64
2023-03-28T02:43:37.909Z,73.02
2023-03-28T02:46:25.783Z,72.69
2023-03-28T02:49:10.607Z,72.28
2023-03-28T02:51:46.478Z,71.56
2023-03-28T02:54:28.563Z,71.04
2023-03-28T02:57:25.482Z,69.96
2023-03-28T02:59:58.804Z,68.58
2023-03-28T03:02:28.987Z,68.09
2023-03-28T03:04:57.889Z,69.09
2023-03-28T03:07:27.044Z,69.99
2023-03-28T03:09:54.951Z,68.28
2023-03-28T03:12:24.709Z,68.48
2023-03-28T03:15:01.122Z,69.46
2023-03-28T03:17:48.147Z,69.97
2023-03-28T03:20:19.499Z,69.94
2023-03-28T03:22:47.402Z,70.17
2023-03-28T03:25:16.132Z,71.11
2023-03-28T03:27:54.541Z,71.08
2023-03-28T03:30:24.062Z,71.04
2023-03-28T03:33:10.615Z,73.09
2023-03-28T03:35:42.062Z,71.37
2023-03-28T03:38:10.264Z,72.59
2023-03-28T03:40:38.108Z,72.66
2023-03-28T03:43:06.360Z,73.48
2023-03-28T03:45:37.867Z,73.14
2023-03-28T03:48:06.311Z,74.23
2023-03-28T03:50:34.264Z,73.97
2023-03-28T03:53:02.376Z,73.79
2023-03-28T03:55:39.871Z,72.65
2023-03-28T03:58:08.354Z,72.73
2023-03-28T04:00:39.839Z,73.28
2023-03-28T04:03:25.113Z,72.30
2023-03-28T04:05:58.057Z,72.30
2023-03-28T04:08:26.369Z,73.10
2023-03-28T04:10:54.352Z,72.63
2023-03-28T04:13:22.326Z,73.12
2023-03-28T04:15:56.782Z,73.15
2023-03-28T04:18:39.563Z,74.40
2023-03-28T04:21:09.672Z,75.07
2023-03-28T04:23:44.537Z,73.10
2023-03-28T04:26:29.367Z,72.13
2023-03-28T04:29:06.660Z,72.24
2023-03-28T04:31:40.105Z,72.48
2023-03-28T04:34:37.051Z,71.48
2023-03-28T04:37:11.882Z,71.78
2023-03-28T04:39:48.712Z,71.94
2023-03-28T04:42:35.705Z,71.59
2023-03-28T04:45:14.578Z,72.28
2023-03-28T04:47:46.067Z,71.79
2023-03-28T04:50:19.047Z,71.88
2023-03-28T04:52:46.986Z,71.02
2023-03-28T04:55:17.291Z,71.14
2023-03-28T04:57:47.174Z,72.10
2023-03-28T05:00:17.120Z,71.40
2023-03-28T05:03:05.610Z,70.64
2023-03-28T05:05:39.974Z,70.55
2023-03-28T05:08:12.816Z,71.16
2023-03-28T05:10:40.917Z,70.74
2023-03-28T05:13:10.117Z,69.92
2023-03-28T05:15:47.859Z,70.70
2023-03-28T05:18:32.230Z,72.03
2023-03-28T05:21:00.588Z,71.07
2023-03-28T05:23:28.583Z,70.44
2023-03-28T05:25:58.918Z,72.78
2023-03-28T05:28:30.418Z,71.65
2023-03-28T05:30:58.464Z,70.64
2023-03-28T05:33:26.839Z,70.50
2023-03-28T05:35:56.439Z,70.61
2023-03-28T05:38:24.584Z,70.06
2023-03-28T05:40:58.589Z,69.91
2023-03-28T05:43:27.064Z,69.76
2023-03-28T05:45:55.155Z,68.79
2023-03-28T05:48:30.003Z,68.91
2023-03-28T05:50:59.470Z,68.74
2023-03-28T05:53:27.503Z,68.63
2023-03-28T05:55:55.388Z,69.06
2023-03-28T05:58:23.236Z,68.96
2023-03-28T06:00:51.485Z,70.40
2023-03-28T06:03:20.118Z,67.88
2023-03-28T06:05:48.489Z,68.79
2023-03-28T06:08:26.992Z,67.75
2023-03-28T06:10:54.905Z,68.73
2023-03-28T06:13:27.765Z,68.77
2023-03-28T06:15:56.241Z,68.02
2023-03-28T06:18:31.926Z,68.18
2023-03-28T06:21:00.322Z,68.38
2023-03-28T06:23:29.890Z,67.79
2023-03-28T06:25:57.992Z,68.12
2023-03-28T06:28:33.043Z,65.93
2023-03-28T06:31:21.950Z,65.50
2023-03-28T06:33:50.769Z,63.12
2023-03-28T06:36:21.358Z,64.70
2023-03-28T06:38:52.314Z,62.59
2023-03-28T06:41:21.719Z,59.99
2023-03-28T06:43:49.935Z,60.16
2023-03-28T06:46:36.364Z,61.13
2023-03-28T06:49:04.384Z,59.17
2023-03-28T06:51:53.171Z,58.68
2023-03-28T06:54:22.805Z,58.56
2023-03-28T06:56:50.689Z,59.55
2023-03-28T06:59:18.894Z,58.02
2023-03-28T07:01:52.265Z,59.63
2023-03-28T07:04:26.769Z,59.34
2023-03-28T07:06:54.757Z,60.08
2023-03-28T07:09:24.136Z,59.31
2023-03-28T07:11:58.421Z,58.90
2023-03-28T07:14:26.520Z,57.32
2023-03-28T07:16:55.054Z,56.56
2023-03-28T07:19:23.392Z,59.28
2023-03-28T07:21:53.604Z,56.36
2023-03-28T07:24:24.461Z,55.86
2023-03-28T07:27:14.650Z,55.62
2023-03-28T07:29:43.910Z,55.98
2023-03-28T07:32:13.266Z,54.75
2023-03-28T07:34:41.163Z,55.16
2023-03-28T07:37:11.219Z,52.46
2023-03-28T07:39:56.532Z,50.65
2023-03-28T07:42:26.967Z,48.04
2023-03-28T07:44:55.158Z,47.58
2023-03-28T07:47:23.093Z,46.95
2023-03-28T07:49:51.240Z,43.81
2023-03-28T07:52:20.705Z,43.13
2023-03-28T07:54:48.574Z,43.24
2023-03-28T07:57:17.977Z,45.41
2023-03-28T07:59:59.576Z,43.14
2023-03-28T08:02:28.689Z,42.64
2023-03-28T08:04:56.672Z,42.23
2023-03-28T08:07:27.110Z,42.32
2023-03-28T08:09:57.782Z,43.33
2023-03-28T08:12:31.510Z,44.61
2023-03-28T08:15:00.626Z,43.13
2023-03-28T08:17:29.502Z,40.64
2023-03-28T08:19:58.111Z,42.10
2023-03-28T08:22:28.652Z,41.36
2023-03-28T08:25:09.326Z,42.16
2023-03-28T08:27:40.257Z,41.75
2023-03-28T08:30:12.675Z,39.84
2023-03-28T08:32:51.066Z,39.69
2023-03-28T08:35:19.581Z,39.77
2023-03-28T08:37:51.341Z,41.13
2023-03-28T08:40:21.740Z,41.52
2023-03-28T08:43:07.428Z,40.68
2023-03-28T08:45:47.850Z,39.92
2023-03-28T08:48:23.759Z,40.00
2023-03-28T08:50:58.461Z,40.63
2023-03-28T08:53:34.466Z,39.78
2023-03-28T08:56:06.186Z,41.07
2023-03-28T08:58:42.599Z,41.25
2023-03-28T09:01:11.440Z,40.36
2023-03-28T09:03:40.424Z,39.91
2023-03-28T09:06:24.867Z,40.56
2023-03-28T09:09:22.317Z,40.52
2023-03-28T09:12:15.791Z,40.41
2023-03-28T09:15:13.681Z,41.08
2023-03-28T09:17:53.930Z,43.69
2023-03-28T09:20:32.051Z,41.56
2023-03-28T09:23:33.773Z,40.23
2023-03-28T09:26:44.775Z,41.35
2023-03-28T09:29:19.543Z,41.66
2023-03-28T09:31:51.989Z,40.66
2023-03-28T09:34:23.100Z,40.75
2023-03-28T09:36:55.757Z,40.34
2023-03-28T09:39:34.030Z,39.44
2023-03-28T09:42:09.278Z,40.36
2023-03-28T09:44:58.985Z,40.06
2023-03-28T09:47:51.557Z,40.00
2023-03-28T09:50:22.969Z,37.93
2023-03-28T09:52:58.694Z,40.02
2023-03-28T09:55:30.906Z,37.86
2023-03-28T09:58:04.877Z,37.72
2023-03-28T10:00:38.578Z,36.86
2023-03-28T10:03:34.935Z,35.43
2023-03-28T10:06:20.111Z,36.31
2023-03-28T10:08:49.274Z,37.21
2023-03-28T10:11:31.757Z,38.34
2023-03-28T10:13:59.720Z,37.20
2023-03-28T10:16:30.974Z,36.81
2023-03-28T10:19:25.474Z,37.31
2023-03-28T10:22:21.881Z,38.10
2023-03-28T10:24:53.297Z,36.93
2023-03-28T10:27:26.288Z,35.69
2023-03-28T10:29:57.207Z,35.52
2023-03-28T10:32:31.948Z,35.20
2023-03-28T10:35:31.448Z,34.52
2023-03-28T10:38:15.589Z,34.16
2023-03-28T10:41:10.826Z,33.27
2023-03-28T10:43:58.395Z,33.13
2023-03-28T10:46:41.217Z,34.29
2023-03-28T10:49:20.774Z,33.98
2023-03-28T10:52:17.739Z,35.78
2023-03-28T10:54:59.247Z,31.23
2023-03-28T10:57:51.251Z,32.00
2023-03-28T11:00:26.719Z,32.09
2023-03-28T11:03:16.765Z,31.16
2023-03-28T11:06:08.142Z,31.03
2023-03-28T11:09:01.740Z,31.23
2023-03-28T11:11:54.607Z,29.83
2023-03-28T11:14:29.538Z,31.53
2023-03-28T11:17:04.974Z,31.01
2023-03-28T11:20:30.009Z,33.92
2023-03-28T11:23:19.058Z,30.93
2023-03-28T11:26:10.472Z,33.98
2023-03-28T11:29:16.699Z,30.96
2023-03-28T11:31:52.162Z,30.50
2023-03-28T11:34:26.526Z,34.06
2023-03-28T11:37:03.529Z,34.17
2023-03-28T11:39:39.231Z,34.38
2023-03-28T11:42:12.212Z,33.97
2023-03-28T11:44:53.593Z,33.41
2023-03-28T11:47:27.278Z,32.07
2023-03-28T11:50:11.658Z,31.73
2023-03-28T11:53:00.608Z,32.00
2023-03-28T11:55:35.595Z,31.06
2023-03-28T11:58:17.689Z,30.38
2023-03-28T12:00:49.963Z,30.29
2023-03-28T12:03:29.002Z,31.78
2023-03-28T12:06:04.801Z,31.60
2023-03-28T12:08:40.296Z,30.56
2023-03-28T12:11:15.907Z,31.84
2023-03-28T12:14:13.875Z,32.08
2023-03-28T12:16:53.201Z,32.45
2023-03-28T12:19:33.228Z,30.50
2023-03-28T12:22:13.037Z,31.82
2023-03-28T12:24:50.673Z,32.43
2023-03-28T12:27:39.492Z,32.26
2023-03-28T12:30:20.999Z,29.86
2023-03-28T12:33:01.535Z,30.60
2023-03-28T12:35:40.853Z,30.64
2023-03-28T12:38:26.585Z,32.21
2023-03-28T12:41:05.640Z,31.67
2023-03-28T12:43:43.398Z,32.50
2023-03-28T12:46:18.018Z,31.72
2023-03-28T12:48:51.039Z,32.63
2023-03-28T12:51:31.885Z,33.89
2023-03-28T12:54:09.245Z,33.44
2023-03-28T12:56:37.772Z,31.89
2023-03-28T12:59:43.641Z,34.46
2023-03-28T13:02:33.396Z,32.27
2023-03-28T13:05:10.281Z,32.26
2023-03-28T13:07:53.737Z,32.14
2023-03-28T13:10:28.702Z,32.09
2023-03-28T13:13:08.670Z,33.03
2023-03-28T13:15:54.995Z,31.33
2023-03-28T13:18:31.423Z,33.01
2023-03-28T13:21:01.371Z,33.71
2023-03-28T13:23:32.900Z,32.25
2023-03-28T13:26:02.762Z,33.47
2023-03-28T13:28:33.858Z,32.56
2023-03-28T13:31:11.263Z,31.87
2023-03-28T13:33:47.402Z,32.53
2023-03-28T13:36:21.252Z,33.05
2023-03-28T13:38:50.828Z,32.01
2023-03-28T13:41:50.071Z,32.99
2023-03-28T13:44:21.064Z,31.61
2023-03-28T13:46:50.070Z,31.40
2023-03-28T13:49:21.840Z,33.10
2023-03-28T13:51:54.670Z,32.39
2023-03-28T13:54:24.024Z,33.20
2023-03-28T13:56:53.447Z,31.07
2023-03-28T13:59:26.289Z,32.10
2023-03-28T14:01:56.480Z,30.85
2023-03-28T14:04:27.666Z,32.68
2023-03-28T14:06:56.500Z,30.95
2023-03-28T14:09:32.363Z,32.25
2023-03-28T14:12:04.557Z,31.68
2023-03-28T14:14:36.067Z,32.71
2023-03-28T14:17:05.941Z,31.82
2023-03-28T14:19:40.734Z,33.04
2023-03-28T14:22:09.536Z,32.35
2023-03-28T14:24:37.988Z,32.23
2023-03-28T14:27:14.421Z,32.43
2023-03-28T14:29:55.409Z,31.12
2023-03-28T14:32:26.978Z,30.08
2023-03-28T14:34:57.272Z,30.42
2023-03-28T14:37:25.710Z,31.60
2023-03-28T14:39:54.626Z,30.56
2023-03-28T14:42:24.368Z,31.24
2023-03-28T14:44:55.035Z,32.00
2023-03-28T14:47:28.998Z,32.80
2023-03-28T14:49:59.204Z,31.62
2023-03-28T14:52:30.739Z,34.00
2023-03-28T14:54:59.344Z,31.33
2023-03-28T14:57:27.867Z,32.06
2023-03-28T14:59:58.449Z,32.93
2023-03-28T15:02:30.480Z,31.87
2023-03-28T15:05:03.556Z,29.56
2023-03-28T15:07:35.571Z,29.52
2023-03-28T15:10:09.155Z,30.47
2023-03-28T15:12:45.812Z,30.49
2023-03-28T15:15:20.487Z,30.70
2023-03-28T15:17:49.695Z,32.23
2023-03-28T15:20:22.214Z,31.35
2023-03-28T15:22:55.040Z,32.27
2023-03-28T15:25:23.641Z,30.57
2023-03-28T15:27:56.626Z,32.64
2023-03-28T15:30:25.489Z,31.93
2023-03-28T15:33:01.436Z,32.56
2023-03-28T15:35:33.984Z,31.53
2023-03-28T15:38:03.841Z,32.63
2023-03-28T15:40:39.222Z,33.49
2023-03-28T15:43:07.948Z,31.16
2023-03-28T15:45:42.172Z,32.62
2023-03-28T15:48:20.128Z,32.63
2023-03-28T15:50:55.214Z,32.61
2023-03-28T15:53:28.066Z,32.89
2023-03-28T15:56:08.573Z,32.03
2023-03-28T15:58:42.720Z,31.84
2023-03-28T16:01:26.093Z,33.12
2023-03-28T16:04:17.144Z,33.91
2023-03-28T16:06:46.687Z,32.67
2023-03-28T16:09:18.133Z,33.52
2023-03-28T16:11:46.658Z,34.04
2023-03-28T16:14:52.744Z,33.05
2023-03-28T16:17:25.741Z,33.80
2023-03-28T16:20:19.505Z,35.39
2023-03-28T16:22:49.127Z,35.53
2023-03-28T16:25:17.277Z,35.47
2023-03-28T16:27:45.546Z,35.69
2023-03-28T16:30:20.532Z,34.88
2023-03-28T16:32:48.746Z,34.79
2023-03-28T16:35:16.909Z,35.92
2023-03-28T16:37:45.492Z,36.38
2023-03-28T16:40:15.619Z,37.05
2023-03-28T16:42:43.547Z,34.70
2023-03-28T16:45:13.662Z,36.06
2023-03-28T16:47:41.671Z,34.36
2023-03-28T16:50:10.751Z,36.90
2023-03-28T16:52:40.517Z,35.64
2023-03-28T16:55:10.212Z,37.08
2023-03-28T16:57:39.719Z,37.46
2023-03-28T17:00:11.709Z,37.87
2023-03-28T17:02:40.009Z,35.54
2023-03-28T17:05:08.516Z,38.08
2023-03-28T17:07:36.905Z,37.95
2023-03-28T17:10:05.407Z,37.54
2023-03-28T17:12:34.287Z,37.06
2023-03-28T17:15:04.016Z,38.53
2023-03-28T17:17:32.043Z,38.42
2023-03-28T17:20:00.586Z,37.20
2023-03-28T17:22:28.489Z,36.26
2023-03-28T17:24:57.345Z,36.84
2023-03-28T17:27:25.235Z,39.92
2023-03-28T17:29:53.133Z,39.26
2023-03-28T17:32:22.406Z,38.97
2023-03-28T17:34:50.685Z,38.25
2023-03-28T17:37:20.383Z,38.23
2023-03-28T17:39:48.582Z,38.65
2023-03-28T17:42:16.804Z,37.77
2023-03-28T17:44:44.934Z,38.52
2023-03-28T17:47:12.886Z,39.14
2023-03-28T17:49:42.150Z,37.78
2023-03-28T17:52:11.104Z,38.54
2023-03-28T17:54:39.005Z,39.75
2023-03-28T17:57:08.250Z,39.83
2023-03-28T17:59:36.312Z,38.72
2023-03-28T18:02:04.574Z,40.59
2023-03-28T18:04:32.904Z,39.04
2023-03-28T18:07:17.907Z,39.86
2023-03-28T18:09:46.179Z,39.92
2023-03-28T18:12:14.517Z,41.14
2023-03-28T18:14:42.727Z,40.64
2023-03-28T18:17:10.692Z,41.00
2023-03-28T18:19:39.559Z,40.62
2023-03-28T18:22:07.891Z,41.27
2023-03-28T18:24:37.164Z,40.67
2023-03-28T18:27:08.214Z,40.06
2023-03-28T18:29:36.156Z,41.33
2023-03-28T18:32:04.221Z,42.26
2023-03-28T18:34:32.643Z,42.50
2023-03-28T18:37:00.549Z,41.79
2023-03-28T18:39:29.199Z,41.43
2023-03-28T18:42:04.466Z,41.35
2023-03-28T18:44:35.666Z,42.84
2023-03-28T18:47:03.899Z,41.85
2023-03-28T18:49:32.103Z,42.32
2023-03-28T18:52:04.479Z,42.76
2023-03-28T18:54:33.044Z,43.05
2023-03-28T18:57:03.403Z,42.41
2023-03-28T18:59:32.413Z,42.48
2023-03-28T19:02:01.002Z,42.92
2023-03-28T19:04:29.093Z,43.21
2023-03-28T19:06:57.538Z,44.06
2023-03-28T19:09:25.842Z,44.03
2023-03-28T19:11:55.058Z,44.03
2023-03-28T19:14:24.417Z,45.14
2023-03-28T19:16:52.416Z,44.32
2023-03-28T19:19:20.363Z,44.45
2023-03-28T19:21:48.297Z,45.45
2023-03-28T19:24:16.452Z,45.78
2023-03-28T19:26:44.315Z,45.19
2023-03-28T19:29:12.433Z,46.15
2023-03-28T19:31:41.986Z,47.26
2023-03-28T19:34:15.649Z,47.15
2023-03-28T19:36:49.968Z,46.97
2023-03-28T19:39:21.333Z,47.60
2023-03-28T19:41:49.360Z,47.23
2023-03-28T19:44:17.337Z,46.95
2023-03-28T19:46:46.735Z,47.82
2023-03-28T19:49:15.614Z,47.30
2023-03-28T19:51:43.499Z,47.76
2023-03-28T19:54:11.448Z,48.04
2023-03-28T19:56:39.369Z,48.21
2023-03-28T19:59:07.329Z,49.52
2023-03-28T20:01:35.396Z,49.63
2023-03-28T20:04:04.916Z,49.62
2023-03-28T20:06:32.900Z,49.15
2023-03-28T20:09:01.151Z,49.86
2023-03-28T20:11:29.499Z,49.71
2023-03-28T20:13:58.234Z,50.56
2023-03-28T20:16:26.271Z,50.33
2023-03-28T20:18:54.830Z,50.35
2023-03-28T20:21:24.069Z,50.80
2023-03-28T20:23:52.038Z,50.78
2023-03-28T20:26:21.639Z,50.48
2023-03-28T20:28:56.734Z,50.17
2023-03-28T20:31:25.024Z,50.52
2023-03-28T20:33:53.414Z,52.31
2023-03-28T20:36:21.350Z,50.93
2023-03-28T20:38:50.619Z,50.68
2023-03-28T20:41:19.480Z,52.76
2023-03-28T20:43:48.111Z,52.74
2023-03-28T20:46:19.508Z,52.03
2023-03-28T20:48:52.107Z,52.07
2023-03-28T20:51:22.553Z,53.12
2023-03-28T20:53:57.018Z,51.16
2023-03-28T20:56:25.611Z,53.00
2023-03-28T20:58:54.276Z,52.49
2023-03-28T21:01:26.387Z,52.27
2023-03-28T21:03:58.170Z,53.40
2023-03-28T21:06:29.428Z,53.08
2023-03-28T21:09:00.555Z,53.35
2023-03-28T21:11:30.080Z,53.29
2023-03-28T21:13:59.775Z,53.58
2023-03-28T21:16:29.125Z,55.30
2023-03-28T21:18:57.580Z,53.56
2023-03-28T21:21:29.670Z,53.68
2023-03-28T21:23:58.982Z,55.67
2023-03-28T21:26:27.267Z,54.41
2023-03-28T21:28:55.180Z,54.94
2023-03-28T21:31:25.891Z,54.34
2023-03-28T21:33:55.467Z,54.70
2023-03-28T21:36:24.115Z,54.33
2023-03-28T21:38:52.230Z,52.99
2023-03-28T21:41:22.433Z,54.17
2023-03-28T21:43:51.813Z,53.82
2023-03-28T21:46:20.729Z,54.49
2023-03-28T21:48:49.968Z,54.13
2023-03-28T21:51:18.827Z,53.88
2023-03-28T21:53:46.986Z,54.34
2023-03-28T21:56:16.364Z,54.91
2023-03-28T21:58:45.983Z,54.16
2023-03-28T22:01:17.518Z,53.75
2023-03-28T22:03:46.672Z,53.86
2023-03-28T22:06:15.460Z,54.45
2023-03-28T22:08:45.121Z,53.88
2023-03-28T22:11:15.063Z,55.40
2023-03-28T22:13:47.225Z,54.28
2023-03-28T22:16:15.524Z,54.21
2023-03-28T22:18:49.529Z,53.50
2023-03-28T22:21:17.595Z,54.26
2023-03-28T22:23:47.373Z,54.58
2023-03-28T22:26:16.399Z,54.50
2023-03-28T22:28:45.993Z,54.48
2023-03-28T22:31:16.766Z,55.78
2023-03-28T22:33:44.831Z,54.56
2023-03-28T22:36:13.344Z,55.71
2023-03-28T22:38:41.343Z,54.52
2023-03-28T22:41:09.227Z,55.14
2023-03-28T22:43:37.431Z,55.05
2023-03-28T22:46:07.777Z,55.06
2023-03-28T22:48:38.261Z,56.50
2023-03-28T22:51:11.463Z,55.93
2023-03-28T22:53:39.348Z,56.06
2023-03-28T22:56:08.522Z,55.34
2023-03-28T22:58:36.986Z,55.59
2023-03-28T23:01:06.963Z,55.83
2023-03-28T23:03:34.777Z,56.82
2023-03-28T23:06:06.093Z,57.26
2023-03-28T23:08:34.145Z,57.40
2023-03-28T23:11:02.624Z,56.85
2023-03-28T23:13:30.649Z,56.73
2023-03-28T23:15:58.574Z,57.04
2023-03-28T23:18:27.932Z,57.25
2023-03-28T23:20:56.525Z,56.85
2023-03-28T23:23:24.396Z,56.92
2023-03-28T23:25:52.330Z,57.47
2023-03-28T23:28:20.448Z,56.68
2023-03-28T23:30:48.373Z,56.80
2023-03-28T23:33:18.582Z,57.71
2023-03-28T23:35:48.409Z,56.91
2023-03-28T23:38:17.490Z,56.90
2023-03-28T23:40:46.114Z,57.64
2023-03-28T23:43:14.387Z,57.04
2023-03-28T23:45:43.376Z,57.75
2023-03-28T23:48:11.506Z,57.34
2023-03-28T23:50:39.744Z,57.43
2023-03-28T23:53:09.387Z,57.35
2023-03-28T23:55:37.423Z,58.03
2023-03-28T23:58:05.350Z,57.59
